sensor_id;sensor_type;location;lat;lon;timestamp;P1;P2;P0
50589;PMS7003;36547;50.514;30.840;2023-07-16T00:00:44;16.40;16.40;12.80
50589;PMS7003;36547;50.514;30.840;2023-07-16T00:01:47;15.50;14.40;11.20
50589;PMS7003;36547;50.514;30.840;2023-07-16T00:02:49;16.50;15.80;13.10
50589;PMS7003;36547;50.514;30.840;2023-07-16T00:03:51;14.50;14.50;12.10
50589;PMS7003;36547;50.514;30.840;2023-07-16T00:04:54;16.00;15.30;13.20
50589;PMS7003;36547;50.514;30.840;2023-07-16T00:05:57;15.55;15.55;12.18
50589;PMS7003;36547;50.514;30.840;2023-07-16T00:06:59;14.20;14.00;11.60
50589;PMS7003;36547;50.514;30.840;2023-07-16T00:08:02;14.64;14.55;11.91
50589;PMS7003;36547;50.514;30.840;2023-07-16T00:09:05;14.10;12.80;10.70
50589;PMS7003;36547;50.514;30.840;2023-07-16T00:10:08;14.64;14.64;11.55
50589;PMS7003;36547;50.514;30.840;2023-07-16T00:11:11;16.73;16.36;13.00
50589;PMS7003;36547;50.514;30.840;2023-07-16T00:12:13;19.30;16.30;13.20
50589;PMS7003;36547;50.514;30.840;2023-07-16T00:13:15;15.00;14.50;11.30
50589;PMS7003;36547;50.514;30.840;2023-07-16T00:14:17;15.90;15.50;11.50
50589;PMS7003;36547;50.514;30.840;2023-07-16T00:15:20;14.70;14.70;11.60
50589;PMS7003;36547;50.514;30.840;2023-07-16T00:16:22;14.60;13.80;11.40
50589;PMS7003;36547;50.514;30.840;2023-07-16T00:17:25;14.50;14.50;11.20
50589;PMS7003;36547;50.514;30.840;2023-07-16T00:18:28;14.00;13.18;10.82
50589;PMS7003;36547;50.514;30.840;2023-07-16T00:19:30;13.60;13.00;10.40
50589;PMS7003;36547;50.514;30.840;2023-07-16T00:20:33;14.40;13.80;11.20
50589;PMS7003;36547;50.514;30.840;2023-07-16T00:21:35;14.10;13.10;10.30
50589;PMS7003;36547;50.514;30.840;2023-07-16T00:22:37;15.50;12.50;10.70
50589;PMS7003;36547;50.514;30.840;2023-07-16T00:23:41;14.20;14.20;11.20
50589;PMS7003;36547;50.514;30.840;2023-07-16T00:24:43;13.10;11.80;10.20
50589;PMS7003;36547;50.514;30.840;2023-07-16T00:25:46;15.40;13.30;11.30
50589;PMS7003;36547;50.514;30.840;2023-07-16T00:26:48;13.90;12.60;10.20
50589;PMS7003;36547;50.514;30.840;2023-07-16T00:27:50;13.00;12.50;10.70
50589;PMS7003;36547;50.514;30.840;2023-07-16T00:28:53;15.50;13.40;11.90
50589;PMS7003;36547;50.514;30.840;2023-07-16T00:29:56;13.27;13.27;10.82
50589;PMS7003;36547;50.514;30.840;2023-07-16T00:30:58;13.60;13.20;10.70
50589;PMS7003;36547;50.514;30.840;2023-07-16T00:32:01;12.20;12.20;10.20
50589;PMS7003;36547;50.514;30.840;2023-07-16T00:33:04;14.09;13.45;11.18
50589;PMS7003;36547;50.514;30.840;2023-07-16T00:34:07;13.91;13.91;12.00
50589;PMS7003;36547;50.514;30.840;2023-07-16T00:35:09;13.40;12.40;9.80
50589;PMS7003;36547;50.514;30.840;2023-07-16T00:36:11;12.00;11.10;7.70
50589;PMS7003;36547;50.514;30.840;2023-07-16T00:37:14;15.80;14.00;11.10
50589;PMS7003;36547;50.514;30.840;2023-07-16T00:38:17;13.80;12.60;9.70
50589;PMS7003;36547;50.514;30.840;2023-07-16T00:39:19;13.70;12.90;10.40
50589;PMS7003;36547;50.514;30.840;2023-07-16T00:40:22;15.30;13.90;10.50
50589;PMS7003;36547;50.514;30.840;2023-07-16T00:41:24;14.70;13.70;10.80
50589;PMS7003;36547;50.514;30.840;2023-07-16T00:42:27;14.40;13.30;10.70
50589;PMS7003;36547;50.514;30.840;2023-07-16T00:43:29;13.60;12.90;10.40
50589;PMS7003;36547;50.514;30.840;2023-07-16T00:44:31;13.40;12.40;10.10
50589;PMS7003;36547;50.514;30.840;2023-07-16T00:45:34;10.50;10.50;8.70
50589;PMS7003;36547;50.514;30.840;2023-07-16T00:46:37;12.45;12.18;10.09
50589;PMS7003;36547;50.514;30.840;2023-07-16T00:47:41;11.80;10.20;8.80
50589;PMS7003;36547;50.514;30.840;2023-07-16T00:48:44;12.60;12.60;10.00
50589;PMS7003;36547;50.514;30.840;2023-07-16T00:49:46;12.20;12.20;9.80
50589;PMS7003;36547;50.514;30.840;2023-07-16T00:50:49;13.40;12.80;10.50
50589;PMS7003;36547;50.514;30.840;2023-07-16T00:51:54;15.60;12.70;9.60
50589;PMS7003;36547;50.514;30.840;2023-07-16T00:52:56;15.50;14.20;11.20
50589;PMS7003;36547;50.514;30.840;2023-07-16T00:53:59;9.40;8.80;6.70
50589;PMS7003;36547;50.514;30.840;2023-07-16T00:55:02;11.82;10.27;9.18
50589;PMS7003;36547;50.514;30.840;2023-07-16T00:56:05;12.00;11.90;10.20
50589;PMS7003;36547;50.514;30.840;2023-07-16T00:57:08;10.80;10.80;8.90
50589;PMS7003;36547;50.514;30.840;2023-07-16T00:58:10;14.20;12.90;10.70
50589;PMS7003;36547;50.514;30.840;2023-07-16T00:59:12;10.70;10.50;8.10
50589;PMS7003;36547;50.514;30.840;2023-07-16T01:00:16;11.20;9.70;8.60
50589;PMS7003;36547;50.514;30.840;2023-07-16T01:01:18;11.30;10.80;8.20
50589;PMS7003;36547;50.514;30.840;2023-07-16T01:02:20;10.70;10.40;8.70
50589;PMS7003;36547;50.514;30.840;2023-07-16T01:03:23;11.70;10.90;9.20
50589;PMS7003;36547;50.514;30.840;2023-07-16T01:04:25;10.80;9.80;8.30
50589;PMS7003;36547;50.514;30.840;2023-07-16T01:05:31;10.70;10.30;8.60
50589;PMS7003;36547;50.514;30.840;2023-07-16T01:06:35;9.55;8.55;7.18
50589;PMS7003;36547;50.514;30.840;2023-07-16T01:07:41;12.50;11.10;8.90
50589;PMS7003;36547;50.514;30.840;2023-07-16T01:10:01;10.60;10.00;8.30
50589;PMS7003;36547;50.514;30.840;2023-07-16T01:11:04;9.70;8.90;7.90
50589;PMS7003;36547;50.514;30.840;2023-07-16T01:12:09;11.00;10.40;9.20
50589;PMS7003;36547;50.514;30.840;2023-07-16T01:13:12;9.10;8.40;7.20
50589;PMS7003;36547;50.514;30.840;2023-07-16T01:14:16;10.64;9.00;7.82
50589;PMS7003;36547;50.514;30.840;2023-07-16T01:15:19;9.00;9.00;6.90
50589;PMS7003;36547;50.514;30.840;2023-07-16T01:16:23;8.60;8.50;7.20
50589;PMS7003;36547;50.514;30.840;2023-07-16T01:17:27;9.80;8.60;7.90
50589;PMS7003;36547;50.514;30.840;2023-07-16T01:18:29;9.80;9.30;7.80
50589;PMS7003;36547;50.514;30.840;2023-07-16T01:19:32;9.50;8.70;7.60
50589;PMS7003;36547;50.514;30.840;2023-07-16T01:20:36;8.90;8.80;7.70
50589;PMS7003;36547;50.514;30.840;2023-07-16T01:21:42;10.70;9.40;7.90
50589;PMS7003;36547;50.514;30.840;2023-07-16T01:30:17;9.40;9.40;8.00
50589;PMS7003;36547;50.514;30.840;2023-07-16T01:31:21;10.10;9.20;7.70
50589;PMS7003;36547;50.514;30.840;2023-07-16T01:32:25;8.70;8.70;7.70
50589;PMS7003;36547;50.514;30.840;2023-07-16T01:33:29;9.60;9.60;8.30
50589;PMS7003;36547;50.514;30.840;2023-07-16T01:34:34;11.10;11.10;8.40
50589;PMS7003;36547;50.514;30.840;2023-07-16T01:35:38;9.50;8.70;7.30
50589;PMS7003;36547;50.514;30.840;2023-07-16T01:36:43;10.90;10.20;7.60
50589;PMS7003;36547;50.514;30.840;2023-07-16T01:37:48;10.80;9.00;7.50
50589;PMS7003;36547;50.514;30.840;2023-07-16T01:38:50;10.20;9.00;7.80
50589;PMS7003;36547;50.514;30.840;2023-07-16T01:39:53;9.82;9.82;8.00
50589;PMS7003;36547;50.514;30.840;2023-07-16T01:40:56;9.00;9.00;7.80
50589;PMS7003;36547;50.514;30.840;2023-07-16T01:42:00;11.00;10.40;8.00
50589;PMS7003;36547;50.514;30.840;2023-07-16T01:43:02;9.30;9.30;8.10
50589;PMS7003;36547;50.514;30.840;2023-07-16T01:44:04;9.80;9.60;7.80
50589;PMS7003;36547;50.514;30.840;2023-07-16T01:45:07;10.70;10.70;8.80
50589;PMS7003;36547;50.514;30.840;2023-07-16T01:46:10;9.50;9.50;7.50
50589;PMS7003;36547;50.514;30.840;2023-07-16T01:48:29;9.60;9.00;7.70
50589;PMS7003;36547;50.514;30.840;2023-07-16T01:49:34;7.50;7.50;6.40
50589;PMS7003;36547;50.514;30.840;2023-07-16T01:50:37;9.91;9.91;8.36
50589;PMS7003;36547;50.514;30.840;2023-07-16T01:51:40;8.70;8.70;7.90
50589;PMS7003;36547;50.514;30.840;2023-07-16T01:52:42;10.30;9.10;8.20
50589;PMS7003;36547;50.514;30.840;2023-07-16T01:53:44;10.10;10.10;8.40
50589;PMS7003;36547;50.514;30.840;2023-07-16T01:54:47;9.90;9.70;8.30
50589;PMS7003;36547;50.514;30.840;2023-07-16T01:55:49;9.60;9.20;7.30
50589;PMS7003;36547;50.514;30.840;2023-07-16T01:56:52;9.70;9.10;7.10
50589;PMS7003;36547;50.514;30.840;2023-07-16T01:57:54;9.70;8.70;7.20
50589;PMS7003;36547;50.514;30.840;2023-07-16T01:58:57;10.00;10.00;8.70
50589;PMS7003;36547;50.514;30.840;2023-07-16T01:59:59;10.30;8.00;6.40
50589;PMS7003;36547;50.514;30.840;2023-07-16T02:01:01;8.90;8.10;7.10
50589;PMS7003;36547;50.514;30.840;2023-07-16T02:02:04;8.60;8.40;7.50
50589;PMS7003;36547;50.514;30.840;2023-07-16T02:03:06;8.90;8.60;6.80
50589;PMS7003;36547;50.514;30.840;2023-07-16T02:04:09;7.70;7.70;7.00
50589;PMS7003;36547;50.514;30.840;2023-07-16T02:05:12;8.82;8.36;7.27
50589;PMS7003;36547;50.514;30.840;2023-07-16T02:06:16;9.64;9.55;8.09
50589;PMS7003;36547;50.514;30.840;2023-07-16T02:07:19;11.27;10.45;7.64
50589;PMS7003;36547;50.514;30.840;2023-07-16T02:08:21;9.00;8.50;8.30
50589;PMS7003;36547;50.514;30.840;2023-07-16T02:09:24;9.10;7.60;6.30
50589;PMS7003;36547;50.514;30.840;2023-07-16T02:10:26;10.40;9.80;8.20
50589;PMS7003;36547;50.514;30.840;2023-07-16T02:11:29;10.40;10.40;8.50
50589;PMS7003;36547;50.514;30.840;2023-07-16T02:12:31;8.30;8.30;7.10
50589;PMS7003;36547;50.514;30.840;2023-07-16T02:13:34;8.10;8.10;7.50
50589;PMS7003;36547;50.514;30.840;2023-07-16T02:14:37;8.60;8.60;6.80
50589;PMS7003;36547;50.514;30.840;2023-07-16T02:15:40;8.82;8.45;7.64
50589;PMS7003;36547;50.514;30.840;2023-07-16T02:16:42;8.40;8.10;6.70
50589;PMS7003;36547;50.514;30.840;2023-07-16T02:17:45;8.00;7.60;6.40
50589;PMS7003;36547;50.514;30.840;2023-07-16T02:18:51;8.50;7.80;7.30
50589;PMS7003;36547;50.514;30.840;2023-07-16T02:19:53;9.20;8.10;7.10
50589;PMS7003;36547;50.514;30.840;2023-07-16T02:20:57;8.00;8.00;6.80
50589;PMS7003;36547;50.514;30.840;2023-07-16T02:21:59;10.09;9.73;7.64
50589;PMS7003;36547;50.514;30.840;2023-07-16T02:23:03;8.90;8.90;7.20
50589;PMS7003;36547;50.514;30.840;2023-07-16T02:24:06;7.70;7.20;7.10
50589;PMS7003;36547;50.514;30.840;2023-07-16T02:25:08;9.30;8.80;7.70
50589;PMS7003;36547;50.514;30.840;2023-07-16T02:26:11;8.90;8.90;7.70
50589;PMS7003;36547;50.514;30.840;2023-07-16T02:27:14;9.82;8.73;7.27
50589;PMS7003;36547;50.514;30.840;2023-07-16T02:28:16;10.60;8.80;7.10
50589;PMS7003;36547;50.514;30.840;2023-07-16T02:29:18;9.20;8.90;7.90
50589;PMS7003;36547;50.514;30.840;2023-07-16T02:30:21;8.60;8.20;6.80
50589;PMS7003;36547;50.514;30.840;2023-07-16T02:31:23;10.10;9.80;8.50
50589;PMS7003;36547;50.514;30.840;2023-07-16T02:32:27;8.60;8.60;7.10
50589;PMS7003;36547;50.514;30.840;2023-07-16T02:33:29;9.60;7.80;7.00
50589;PMS7003;36547;50.514;30.840;2023-07-16T02:34:32;8.40;6.90;6.10
50589;PMS7003;36547;50.514;30.840;2023-07-16T02:35:36;8.70;8.70;7.50
50589;PMS7003;36547;50.514;30.840;2023-07-16T02:36:38;8.50;8.50;7.30
50589;PMS7003;36547;50.514;30.840;2023-07-16T02:37:40;9.90;9.90;8.00
50589;PMS7003;36547;50.514;30.840;2023-07-16T02:38:43;8.10;8.10;6.70
50589;PMS7003;36547;50.514;30.840;2023-07-16T02:39:45;8.20;8.20;6.90
50589;PMS7003;36547;50.514;30.840;2023-07-16T02:40:48;10.20;9.60;8.10
50589;PMS7003;36547;50.514;30.840;2023-07-16T02:41:51;9.70;9.20;7.90
50589;PMS7003;36547;50.514;30.840;2023-07-16T02:42:53;10.40;9.50;7.90
50589;PMS7003;36547;50.514;30.840;2023-07-16T02:44:03;9.40;8.70;7.40
50589;PMS7003;36547;50.514;30.840;2023-07-16T02:45:07;9.20;8.60;7.20
50589;PMS7003;36547;50.514;30.840;2023-07-16T02:46:10;9.60;9.60;8.20
50589;PMS7003;36547;50.514;30.840;2023-07-16T02:47:13;10.30;9.50;7.60
50589;PMS7003;36547;50.514;30.840;2023-07-16T02:48:15;13.00;11.50;9.00
50589;PMS7003;36547;50.514;30.840;2023-07-16T02:49:17;12.30;11.20;8.70
50589;PMS7003;36547;50.514;30.840;2023-07-16T02:50:20;10.00;8.90;7.70
50589;PMS7003;36547;50.514;30.840;2023-07-16T02:51:22;11.40;10.20;7.50
50589;PMS7003;36547;50.514;30.840;2023-07-16T02:52:25;9.27;9.27;7.55
50589;PMS7003;36547;50.514;30.840;2023-07-16T02:53:28;9.10;9.10;7.60
50589;PMS7003;36547;50.514;30.840;2023-07-16T02:54:30;9.90;9.90;7.50
50589;PMS7003;36547;50.514;30.840;2023-07-16T02:55:32;10.80;9.90;8.30
50589;PMS7003;36547;50.514;30.840;2023-07-16T02:56:37;9.50;8.30;6.40
50589;PMS7003;36547;50.514;30.840;2023-07-16T02:57:39;8.80;8.80;7.90
50589;PMS7003;36547;50.514;30.840;2023-07-16T02:58:42;11.45;9.91;7.64
50589;PMS7003;36547;50.514;30.840;2023-07-16T02:59:44;9.50;9.50;8.20
50589;PMS7003;36547;50.514;30.840;2023-07-16T03:00:47;10.00;10.00;7.90
50589;PMS7003;36547;50.514;30.840;2023-07-16T03:01:51;10.60;9.80;8.90
50589;PMS7003;36547;50.514;30.840;2023-07-16T03:02:53;10.10;10.10;8.60
50589;PMS7003;36547;50.514;30.840;2023-07-16T03:03:56;10.91;8.45;7.73
50589;PMS7003;36547;50.514;30.840;2023-07-16T03:04:59;10.20;9.30;7.20
50589;PMS7003;36547;50.514;30.840;2023-07-16T03:06:02;9.10;8.70;7.90
50589;PMS7003;36547;50.514;30.840;2023-07-16T03:07:04;8.60;8.30;6.80
50589;PMS7003;36547;50.514;30.840;2023-07-16T03:08:07;10.00;10.00;9.20
50589;PMS7003;36547;50.514;30.840;2023-07-16T03:09:09;11.90;10.00;7.40
50589;PMS7003;36547;50.514;30.840;2023-07-16T03:10:12;10.20;10.10;8.50
50589;PMS7003;36547;50.514;30.840;2023-07-16T03:11:14;9.40;9.40;7.70
50589;PMS7003;36547;50.514;30.840;2023-07-16T03:12:17;9.40;9.40;7.90
50589;PMS7003;36547;50.514;30.840;2023-07-16T03:13:19;10.73;9.00;7.18
50589;PMS7003;36547;50.514;30.840;2023-07-16T03:14:22;10.20;9.20;7.80
50589;PMS7003;36547;50.514;30.840;2023-07-16T03:15:24;8.30;8.30;7.00
50589;PMS7003;36547;50.514;30.840;2023-07-16T03:16:27;8.50;8.50;7.60
50589;PMS7003;36547;50.514;30.840;2023-07-16T03:17:29;9.70;9.70;8.30
50589;PMS7003;36547;50.514;30.840;2023-07-16T03:18:32;8.00;8.00;6.50
50589;PMS7003;36547;50.514;30.840;2023-07-16T03:19:34;11.70;10.60;7.70
50589;PMS7003;36547;50.514;30.840;2023-07-16T03:20:37;8.90;8.70;7.60
50589;PMS7003;36547;50.514;30.840;2023-07-16T03:21:40;8.30;8.30;6.60
50589;PMS7003;36547;50.514;30.840;2023-07-16T03:22:42;7.70;7.70;6.10
50589;PMS7003;36547;50.514;30.840;2023-07-16T03:23:45;9.00;7.90;7.40
50589;PMS7003;36547;50.514;30.840;2023-07-16T03:24:47;7.80;7.80;6.50
50589;PMS7003;36547;50.514;30.840;2023-07-16T03:25:49;7.80;7.80;6.70
50589;PMS7003;36547;50.514;30.840;2023-07-16T03:26:53;8.60;8.30;6.90
50589;PMS7003;36547;50.514;30.840;2023-07-16T03:27:57;8.80;8.50;7.50
50589;PMS7003;36547;50.514;30.840;2023-07-16T03:28:59;9.40;8.30;7.10
50589;PMS7003;36547;50.514;30.840;2023-07-16T03:30:02;9.00;8.50;6.90
50589;PMS7003;36547;50.514;30.840;2023-07-16T03:31:05;7.36;7.36;6.18
50589;PMS7003;36547;50.514;30.840;2023-07-16T03:32:07;9.50;8.70;7.30
50589;PMS7003;36547;50.514;30.840;2023-07-16T03:33:10;4.30;4.00;3.20
50589;PMS7003;36547;50.514;30.840;2023-07-16T03:34:12;7.90;7.60;6.50
50589;PMS7003;36547;50.514;30.840;2023-07-16T03:35:15;8.40;8.40;6.80
50589;PMS7003;36547;50.514;30.840;2023-07-16T03:36:18;7.20;7.20;5.70
50589;PMS7003;36547;50.514;30.840;2023-07-16T03:37:20;7.18;7.18;5.91
50589;PMS7003;36547;50.514;30.840;2023-07-16T03:38:23;6.91;6.09;4.64
50589;PMS7003;36547;50.514;30.840;2023-07-16T03:39:27;8.10;7.70;6.20
50589;PMS7003;36547;50.514;30.840;2023-07-16T03:40:30;9.20;8.40;6.60
50589;PMS7003;36547;50.514;30.840;2023-07-16T03:41:33;9.00;8.00;6.50
50589;PMS7003;36547;50.514;30.840;2023-07-16T03:42:35;6.50;6.50;5.90
50589;PMS7003;36547;50.514;30.840;2023-07-16T03:43:37;8.60;8.60;7.20
50589;PMS7003;36547;50.514;30.840;2023-07-16T03:44:41;8.50;8.20;6.60
50589;PMS7003;36547;50.514;30.840;2023-07-16T03:45:45;8.27;8.27;7.55
50589;PMS7003;36547;50.514;30.840;2023-07-16T03:46:48;9.10;9.10;7.60
50589;PMS7003;36547;50.514;30.840;2023-07-16T03:47:50;7.10;7.10;6.40
50589;PMS7003;36547;50.514;30.840;2023-07-16T03:48:53;8.80;8.00;6.90
50589;PMS7003;36547;50.514;30.840;2023-07-16T03:49:55;7.09;7.09;6.27
50589;PMS7003;36547;50.514;30.840;2023-07-16T03:50:58;9.10;8.40;7.00
50589;PMS7003;36547;50.514;30.840;2023-07-16T03:52:02;7.20;7.10;6.50
50589;PMS7003;36547;50.514;30.840;2023-07-16T03:53:05;6.91;6.91;5.91
50589;PMS7003;36547;50.514;30.840;2023-07-16T03:54:08;8.18;7.00;6.36
50589;PMS7003;36547;50.514;30.840;2023-07-16T03:55:10;7.60;7.60;6.30
50589;PMS7003;36547;50.514;30.840;2023-07-16T03:56:12;8.60;6.80;6.00
50589;PMS7003;36547;50.514;30.840;2023-07-16T03:57:15;6.60;6.60;5.30
50589;PMS7003;36547;50.514;30.840;2023-07-16T03:58:18;7.00;6.64;5.82
50589;PMS7003;36547;50.514;30.840;2023-07-16T03:59:20;6.70;6.70;5.90
50589;PMS7003;36547;50.514;30.840;2023-07-16T04:00:23;8.30;6.80;6.10
50589;PMS7003;36547;50.514;30.840;2023-07-16T04:01:26;7.30;7.30;6.40
50589;PMS7003;36547;50.514;30.840;2023-07-16T04:02:29;8.00;7.80;6.60
50589;PMS7003;36547;50.514;30.840;2023-07-16T04:03:32;7.00;7.00;6.00
50589;PMS7003;36547;50.514;30.840;2023-07-16T04:04:35;7.00;7.00;5.90
50589;PMS7003;36547;50.514;30.840;2023-07-16T04:05:38;7.45;7.09;6.09
50589;PMS7003;36547;50.514;30.840;2023-07-16T04:06:41;5.00;5.00;4.64
50589;PMS7003;36547;50.514;30.840;2023-07-16T04:07:43;7.40;7.20;6.10
50589;PMS7003;36547;50.514;30.840;2023-07-16T04:08:45;5.70;5.50;4.80
50589;PMS7003;36547;50.514;30.840;2023-07-16T04:09:47;6.90;6.90;6.10
50589;PMS7003;36547;50.514;30.840;2023-07-16T04:10:50;7.90;7.90;6.50
50589;PMS7003;36547;50.514;30.840;2023-07-16T04:11:52;9.50;9.50;7.80
50589;PMS7003;36547;50.514;30.840;2023-07-16T04:12:54;10.80;9.40;8.60
50589;PMS7003;36547;50.514;30.840;2023-07-16T04:13:56;9.30;9.30;7.80
50589;PMS7003;36547;50.514;30.840;2023-07-16T04:14:59;8.60;8.50;7.30
50589;PMS7003;36547;50.514;30.840;2023-07-16T04:16:02;9.82;9.18;8.00
50589;PMS7003;36547;50.514;30.840;2023-07-16T04:17:04;9.90;9.30;8.00
50589;PMS7003;36547;50.514;30.840;2023-07-16T04:18:07;6.30;6.30;6.30
50589;PMS7003;36547;50.514;30.840;2023-07-16T04:19:09;11.00;10.00;8.50
50589;PMS7003;36547;50.514;30.840;2023-07-16T04:20:11;8.10;8.00;6.30
50589;PMS7003;36547;50.514;30.840;2023-07-16T04:21:14;10.90;9.00;7.90
50589;PMS7003;36547;50.514;30.840;2023-07-16T04:22:16;8.50;7.90;6.50
50589;PMS7003;36547;50.514;30.840;2023-07-16T04:23:18;8.80;8.40;6.50
50589;PMS7003;36547;50.514;30.840;2023-07-16T04:24:21;8.30;8.30;6.80
50589;PMS7003;36547;50.514;30.840;2023-07-16T04:25:24;8.30;8.30;7.80
50589;PMS7003;36547;50.514;30.840;2023-07-16T04:26:26;8.10;8.10;6.80
50589;PMS7003;36547;50.514;30.840;2023-07-16T04:27:28;7.70;7.70;6.30
50589;PMS7003;36547;50.514;30.840;2023-07-16T04:28:31;7.70;7.50;6.10
50589;PMS7003;36547;50.514;30.840;2023-07-16T04:29:33;9.80;8.10;7.30
50589;PMS7003;36547;50.514;30.840;2023-07-16T04:30:35;7.70;7.40;6.60
50589;PMS7003;36547;50.514;30.840;2023-07-16T04:31:38;6.90;6.80;5.80
50589;PMS7003;36547;50.514;30.840;2023-07-16T04:32:40;6.10;5.80;5.10
50589;PMS7003;36547;50.514;30.840;2023-07-16T04:33:42;8.00;6.20;6.10
50589;PMS7003;36547;50.514;30.840;2023-07-16T04:34:45;7.40;7.30;6.20
50589;PMS7003;36547;50.514;30.840;2023-07-16T04:35:47;8.20;7.20;6.20
50589;PMS7003;36547;50.514;30.840;2023-07-16T04:36:50;7.90;7.30;5.90
50589;PMS7003;36547;50.514;30.840;2023-07-16T04:37:52;8.70;7.90;6.70
50589;PMS7003;36547;50.514;30.840;2023-07-16T04:38:54;7.30;7.30;6.20
50589;PMS7003;36547;50.514;30.840;2023-07-16T04:39:57;8.90;8.10;6.70
50589;PMS7003;36547;50.514;30.840;2023-07-16T04:40:59;7.30;6.80;5.60
50589;PMS7003;36547;50.514;30.840;2023-07-16T04:42:01;7.40;7.40;6.70
50589;PMS7003;36547;50.514;30.840;2023-07-16T04:43:04;5.80;5.80;5.50
50589;PMS7003;36547;50.514;30.840;2023-07-16T04:44:06;4.80;3.40;2.30
50589;PMS7003;36547;50.514;30.840;2023-07-16T04:45:09;7.10;6.20;5.50
50589;PMS7003;36547;50.514;30.840;2023-07-16T04:46:12;6.80;6.80;5.80
50589;PMS7003;36547;50.514;30.840;2023-07-16T04:47:15;7.50;6.80;5.90
50589;PMS7003;36547;50.514;30.840;2023-07-16T04:48:17;7.60;7.10;5.60
50589;PMS7003;36547;50.514;30.840;2023-07-16T04:49:19;7.10;6.20;5.80
50589;PMS7003;36547;50.514;30.840;2023-07-16T04:50:22;7.30;6.70;5.40
50589;PMS7003;36547;50.514;30.840;2023-07-16T04:51:28;7.30;6.40;5.20
50589;PMS7003;36547;50.514;30.840;2023-07-16T04:52:32;5.40;5.40;4.60
50589;PMS7003;36547;50.514;30.840;2023-07-16T04:53:37;6.50;6.00;5.50
50589;PMS7003;36547;50.514;30.840;2023-07-16T04:54:43;6.20;6.20;5.20
50589;PMS7003;36547;50.514;30.840;2023-07-16T04:55:47;6.50;6.20;5.60
50589;PMS7003;36547;50.514;30.840;2023-07-16T04:56:52;6.60;6.60;5.30
50589;PMS7003;36547;50.514;30.840;2023-07-16T04:57:57;7.70;7.40;6.00
50589;PMS7003;36547;50.514;30.840;2023-07-16T04:59:01;7.00;7.00;6.20
50589;PMS7003;36547;50.514;30.840;2023-07-16T05:00:05;8.20;7.10;5.80
50589;PMS7003;36547;50.514;30.840;2023-07-16T05:01:10;7.90;6.90;6.20
50589;PMS7003;36547;50.514;30.840;2023-07-16T05:02:14;6.10;6.10;5.50
50589;PMS7003;36547;50.514;30.840;2023-07-16T05:03:23;5.60;5.30;5.20
50589;PMS7003;36547;50.514;30.840;2023-07-16T05:04:38;7.20;6.40;5.10
50589;PMS7003;36547;50.514;30.840;2023-07-16T05:05:41;5.80;5.50;4.70
50589;PMS7003;36547;50.514;30.840;2023-07-16T05:07:06;4.90;4.90;4.30
50589;PMS7003;36547;50.514;30.840;2023-07-16T05:08:15;6.50;6.50;5.30
50589;PMS7003;36547;50.514;30.840;2023-07-16T05:09:21;5.90;5.90;5.00
50589;PMS7003;36547;50.514;30.840;2023-07-16T05:10:25;5.90;5.90;5.10
50589;PMS7003;36547;50.514;30.840;2023-07-16T05:11:30;5.20;5.00;4.90
50589;PMS7003;36547;50.514;30.840;2023-07-16T05:12:34;6.40;6.40;5.30
50589;PMS7003;36547;50.514;30.840;2023-07-16T05:13:40;4.90;4.90;4.70
50589;PMS7003;36547;50.514;30.840;2023-07-16T05:14:43;4.20;4.20;3.90
50589;PMS7003;36547;50.514;30.840;2023-07-16T05:15:52;5.40;5.40;4.60
50589;PMS7003;36547;50.514;30.840;2023-07-16T05:17:00;5.30;5.30;4.80
50589;PMS7003;36547;50.514;30.840;2023-07-16T05:18:05;5.30;5.30;4.60
50589;PMS7003;36547;50.514;30.840;2023-07-16T05:19:14;7.30;5.20;4.40
50589;PMS7003;36547;50.514;30.840;2023-07-16T05:20:23;5.70;5.50;4.40
50589;PMS7003;36547;50.514;30.840;2023-07-16T05:21:30;5.40;5.40;4.30
50589;PMS7003;36547;50.514;30.840;2023-07-16T05:22:43;4.50;4.50;4.10
50589;PMS7003;36547;50.514;30.840;2023-07-16T05:23:49;6.60;5.70;4.90
50589;PMS7003;36547;50.514;30.840;2023-07-16T05:24:53;5.00;5.00;4.40
50589;PMS7003;36547;50.514;30.840;2023-07-16T05:26:00;3.80;3.80;3.50
50589;PMS7003;36547;50.514;30.840;2023-07-16T05:27:05;4.60;4.40;3.60
50589;PMS7003;36547;50.514;30.840;2023-07-16T05:28:09;5.70;5.70;4.50
50589;PMS7003;36547;50.514;30.840;2023-07-16T05:29:14;4.70;4.70;4.10
50589;PMS7003;36547;50.514;30.840;2023-07-16T05:30:19;5.50;5.50;4.70
50589;PMS7003;36547;50.514;30.840;2023-07-16T05:31:39;5.90;5.90;4.40
50589;PMS7003;36547;50.514;30.840;2023-07-16T05:32:48;4.90;4.90;4.00
50589;PMS7003;36547;50.514;30.840;2023-07-16T05:33:52;6.80;6.00;4.50
50589;PMS7003;36547;50.514;30.840;2023-07-16T05:34:58;5.80;5.40;4.80
50589;PMS7003;36547;50.514;30.840;2023-07-16T05:36:05;6.30;4.90;4.50
50589;PMS7003;36547;50.514;30.840;2023-07-16T05:37:12;5.70;5.70;5.00
50589;PMS7003;36547;50.514;30.840;2023-07-16T05:38:17;5.60;5.20;4.40
50589;PMS7003;36547;50.514;30.840;2023-07-16T05:39:24;5.80;5.80;4.60
50589;PMS7003;36547;50.514;30.840;2023-07-16T05:40:28;5.90;5.20;4.20
50589;PMS7003;36547;50.514;30.840;2023-07-16T05:41:33;5.80;5.80;5.10
50589;PMS7003;36547;50.514;30.840;2023-07-16T05:42:38;6.20;5.80;4.80
50589;PMS7003;36547;50.514;30.840;2023-07-16T05:44:00;5.10;5.10;4.30
50589;PMS7003;36547;50.514;30.840;2023-07-16T05:45:03;5.30;5.30;4.50
50589;PMS7003;36547;50.514;30.840;2023-07-16T05:46:11;7.00;5.90;5.00
50589;PMS7003;36547;50.514;30.840;2023-07-16T05:47:15;5.00;5.00;4.30
50589;PMS7003;36547;50.514;30.840;2023-07-16T05:48:18;6.00;5.20;4.70
50589;PMS7003;36547;50.514;30.840;2023-07-16T05:49:27;6.20;5.90;4.80
50589;PMS7003;36547;50.514;30.840;2023-07-16T05:50:31;6.10;5.50;4.70
50589;PMS7003;36547;50.514;30.840;2023-07-16T05:51:37;4.60;4.60;3.70
50589;PMS7003;36547;50.514;30.840;2023-07-16T05:52:41;5.10;4.60;4.10
50589;PMS7003;36547;50.514;30.840;2023-07-16T05:53:56;3.40;3.10;3.00
50589;PMS7003;36547;50.514;30.840;2023-07-16T05:55:01;4.00;4.00;3.20
50589;PMS7003;36547;50.514;30.840;2023-07-16T05:56:05;4.30;4.30;3.30
50589;PMS7003;36547;50.514;30.840;2023-07-16T05:57:12;5.20;4.00;3.30
50589;PMS7003;36547;50.514;30.840;2023-07-16T05:58:17;5.10;4.50;3.60
50589;PMS7003;36547;50.514;30.840;2023-07-16T05:59:40;4.90;4.20;3.50
50589;PMS7003;36547;50.514;30.840;2023-07-16T06:00:45;3.00;3.00;3.00
50589;PMS7003;36547;50.514;30.840;2023-07-16T06:01:48;3.40;3.10;3.00
50589;PMS7003;36547;50.514;30.840;2023-07-16T06:02:53;4.30;3.50;2.80
50589;PMS7003;36547;50.514;30.840;2023-07-16T06:03:56;4.30;3.70;3.40
50589;PMS7003;36547;50.514;30.840;2023-07-16T06:05:01;4.50;3.80;3.50
50589;PMS7003;36547;50.514;30.840;2023-07-16T06:06:10;3.00;3.00;2.50
50589;PMS7003;36547;50.514;30.840;2023-07-16T06:07:21;4.80;3.60;3.60
50589;PMS7003;36547;50.514;30.840;2023-07-16T06:08:27;4.10;3.40;3.30
50589;PMS7003;36547;50.514;30.840;2023-07-16T06:09:33;5.00;4.60;4.10
50589;PMS7003;36547;50.514;30.840;2023-07-16T06:10:38;2.70;2.70;2.70
50589;PMS7003;36547;50.514;30.840;2023-07-16T06:11:41;4.90;3.50;2.70
50589;PMS7003;36547;50.514;30.840;2023-07-16T06:12:47;4.90;3.80;3.40
50589;PMS7003;36547;50.514;30.840;2023-07-16T06:13:55;2.70;2.70;2.30